sensor_id;sensor_type;location;lat;lon;timestamp;temperature;humidity
59703;DHT22;45570;48.782;8.332;2023-06-14T05:37:54;16.30;99.90
59703;DHT22;45570;48.782;8.332;2023-06-14T05:40:29;16.40;99.90
59703;DHT22;45570;48.782;8.332;2023-06-14T05:53:26;17.60;99.90
59703;DHT22;45570;48.782;8.332;2023-06-14T05:56:00;17.80;99.90
59703;DHT22;45570;48.782;8.332;2023-06-14T06:06:25;18.60;99.90
59703;DHT22;45570;48.782;8.332;2023-06-14T06:09:15;19.00;99.90
59703;DHT22;45570;48.782;8.332;2023-06-14T06:11:49;19.20;99.90
59703;DHT22;45570;48.782;8.332;2023-06-14T06:14:27;19.40;99.90
59703;DHT22;45570;48.782;8.332;2023-06-14T06:17:09;19.50;99.90
59703;DHT22;45570;48.782;8.332;2023-06-14T06:19:43;19.80;99.90
59703;DHT22;45570;48.782;8.332;2023-06-14T06:22:24;20.00;99.90
59703;DHT22;45570;48.782;8.332;2023-06-14T06:24:59;20.20;99.90
59703;DHT22;45570;48.782;8.332;2023-06-14T06:27:36;20.40;99.90
59703;DHT22;45570;48.782;8.332;2023-06-14T06:30:14;20.60;99.90
59703;DHT22;45570;48.782;8.332;2023-06-14T06:32:49;20.80;99.90
59703;DHT22;45570;48.782;8.332;2023-06-14T07:17:24;23.00;98.70
59703;DHT22;45570;48.782;8.332;2023-06-14T07:19:54;23.00;99.90
59703;DHT22;45570;48.782;8.332;2023-06-14T17:44:34;23.30;74.60
59703;DHT22;45570;48.782;8.332;2023-06-14T17:47:04;23.20;75.50
59703;DHT22;45570;48.782;8.332;2023-06-14T17:49:33;23.10;70.10
59703;DHT22;45570;48.782;8.332;2023-06-14T17:52:27;23.00;75.30
59703;DHT22;45570;48.782;8.332;2023-06-14T17:54:57;22.80;74.80
59703;DHT22;45570;48.782;8.332;2023-06-14T17:57:27;22.60;74.10
59703;DHT22;45570;48.782;8.332;2023-06-14T17:59:58;22.40;81.10
59703;DHT22;45570;48.782;8.332;2023-06-14T18:02:38;22.20;79.10
59703;DHT22;45570;48.782;8.332;2023-06-14T18:05:08;22.10;76.40
59703;DHT22;45570;48.782;8.332;2023-06-14T18:07:38;22.10;77.30
59703;DHT22;45570;48.782;8.332;2023-06-14T18:10:08;22.00;78.80
59703;DHT22;45570;48.782;8.332;2023-06-14T18:12:37;22.00;79.60
59703;DHT22;45570;48.782;8.332;2023-06-14T18:15:10;21.90;73.80
59703;DHT22;45570;48.782;8.332;2023-06-14T18:17:40;22.00;77.80
59703;DHT22;45570;48.782;8.332;2023-06-14T18:20:10;21.90;81.00
59703;DHT22;45570;48.782;8.332;2023-06-14T18:22:40;21.90;79.90
59703;DHT22;45570;48.782;8.332;2023-06-14T18:25:09;21.80;81.60
59703;DHT22;45570;48.782;8.332;2023-06-14T18:27:38;21.60;81.30
59703;DHT22;45570;48.782;8.332;2023-06-14T18:30:11;21.40;81.50
59703;DHT22;45570;48.782;8.332;2023-06-14T18:32:43;21.30;84.80
59703;DHT22;45570;48.782;8.332;2023-06-14T18:35:15;21.20;84.60
59703;DHT22;45570;48.782;8.332;2023-06-14T18:37:45;21.10;82.20
59703;DHT22;45570;48.782;8.332;2023-06-14T18:40:14;21.00;84.00
59703;DHT22;45570;48.782;8.332;2023-06-14T18:42:44;20.80;85.00
59703;DHT22;45570;48.782;8.332;2023-06-14T18:45:15;20.70;86.40
59703;DHT22;45570;48.782;8.332;2023-06-14T18:47:44;20.60;85.50
59703;DHT22;45570;48.782;8.332;2023-06-14T18:50:14;20.60;84.10
59703;DHT22;45570;48.782;8.332;2023-06-14T18:52:43;20.60;84.40
59703;DHT22;45570;48.782;8.332;2023-06-14T18:55:15;20.50;86.30
59703;DHT22;45570;48.782;8.332;2023-06-14T18:57:45;20.40;90.00
59703;DHT22;45570;48.782;8.332;2023-06-14T19:00:17;20.20;90.10
59703;DHT22;45570;48.782;8.332;2023-06-14T19:02:46;20.20;88.60
59703;DHT22;45570;48.782;8.332;2023-06-14T19:05:16;20.00;91.60
59703;DHT22;45570;48.782;8.332;2023-06-14T19:08:22;20.00;91.50
59703;DHT22;45570;48.782;8.332;2023-06-14T19:11:20;19.80;90.50
59703;DHT22;45570;48.782;8.332;2023-06-14T19:13:49;19.80;91.70
59703;DHT22;45570;48.782;8.332;2023-06-14T19:16:20;19.60;92.50
59703;DHT22;45570;48.782;8.332;2023-06-14T19:18:50;19.40;92.50
59703;DHT22;45570;48.782;8.332;2023-06-14T19:21:19;19.30;92.90
59703;DHT22;45570;48.782;8.332;2023-06-14T19:23:49;19.20;93.00
59703;DHT22;45570;48.782;8.332;2023-06-14T19:26:18;19.10;93.20
59703;DHT22;45570;48.782;8.332;2023-06-14T19:28:48;19.00;93.50
59703;DHT22;45570;48.782;8.332;2023-06-14T19:31:17;18.90;93.70
59703;DHT22;45570;48.782;8.332;2023-06-14T19:33:48;18.90;93.80
59703;DHT22;45570;48.782;8.332;2023-06-14T19:36:17;18.80;93.50
59703;DHT22;45570;48.782;8.332;2023-06-14T19:38:47;18.80;93.90
59703;DHT22;45570;48.782;8.332;2023-06-14T19:41:17;18.70;94.50
59703;DHT22;45570;48.782;8.332;2023-06-14T19:43:46;18.50;95.20
59703;DHT22;45570;48.782;8.332;2023-06-14T19:46:16;18.40;96.40
59703;DHT22;45570;48.782;8.332;2023-06-14T19:48:48;18.20;98.40
59703;DHT22;45570;48.782;8.332;2023-06-14T19:51:17;18.10;98.30
59703;DHT22;45570;48.782;8.332;2023-06-14T19:53:47;17.90;99.80
59703;DHT22;45570;48.782;8.332;2023-06-14T19:56:16;17.70;99.90
59703;DHT22;45570;48.782;8.332;2023-06-14T19:58:45;17.60;99.90
59703;DHT22;45570;48.782;8.332;2023-06-14T20:01:15;17.40;99.90
59703;DHT22;45570;48.782;8.332;2023-06-14T20:03:44;17.30;99.90
59703;DHT22;45570;48.782;8.332;2023-06-14T20:06:16;17.10;99.90
